createdAt,value
2022-10-28T00:00:52.926Z,100885.00
2022-10-28T00:03:20.802Z,100881.00
2022-10-28T00:05:48.905Z,100881.91
2022-10-28T00:08:16.620Z,100877.56
2022-10-28T00:10:44.378Z,100874.66
2022-10-28T00:13:12.070Z,100867.22
2022-10-28T00:15:41.176Z,100869.72
2022-10-28T00:18:08.877Z,100864.34
2022-10-28T00:20:36.516Z,100855.16
2022-10-28T00:23:04.302Z,100859.66
2022-10-28T00:29:15.848Z,100865.88
2022-10-28T00:31:45.781Z,100859.59
2022-10-28T00:34:15.097Z,100847.66
2022-10-28T00:36:44.301Z,100840.44
2022-10-28T00:39:13.934Z,100847.22
2022-10-28T00:41:43.555Z,100849.81
2022-10-28T00:44:54.513Z,100838.50
2022-10-28T00:47:37.656Z,100837.09
2022-10-28T00:50:16.053Z,100854.00
2022-10-28T00:52:48.075Z,100846.13
2022-10-28T00:55:17.225Z,100849.25
2022-10-28T00:57:47.158Z,100854.88
2022-10-28T01:00:16.220Z,100843.84
2022-10-28T01:02:49.340Z,100830.66
2022-10-28T01:05:21.804Z,100825.69
2022-10-28T01:07:52.542Z,100828.63
2022-10-28T01:10:24.425Z,100823.22
2022-10-28T01:13:06.283Z,100824.13
2022-10-28T01:15:42.794Z,100830.84
2022-10-28T01:18:20.673Z,100827.28
2022-10-28T01:21:24.658Z,100837.81
2022-10-28T01:24:05.424Z,100836.75
2022-10-28T01:26:54.644Z,100828.97
2022-10-28T01:29:42.257Z,100825.13
2022-10-28T01:32:14.594Z,100824.47
2022-10-28T01:34:51.849Z,100833.66
2022-10-28T01:37:26.309Z,100819.34
2022-10-28T01:40:02.857Z,100821.13
2022-10-28T01:42:35.789Z,100812.25
2022-10-28T01:45:14.782Z,100807.31
2022-10-28T01:47:50.712Z,100792.97
2022-10-28T01:50:25.138Z,100797.91
2022-10-28T01:52:56.511Z,100801.56
2022-10-28T01:55:28.410Z,100803.28
2022-10-28T01:58:00.003Z,100795.75
2022-10-28T02:00:28.488Z,100793.81
2022-10-28T02:02:57.709Z,100789.97
2022-10-28T02:05:50.150Z,100786.09
2022-10-28T02:08:33.713Z,100772.53
2022-10-28T02:11:20.892Z,100781.19
2022-10-28T02:14:06.701Z,100779.56
2022-10-28T02:16:44.741Z,100772.72
2022-10-28T02:19:19.845Z,100773.38
2022-10-28T02:21:55.548Z,100763.78
2022-10-28T02:24:31.652Z,100766.88
2022-10-28T02:27:07.926Z,100763.03
2022-10-28T02:29:42.223Z,100768.44
2022-10-28T02:32:14.879Z,100767.97
2022-10-28T02:34:48.545Z,100766.22
2022-10-28T02:37:22.201Z,100760.59
2022-10-28T02:39:54.523Z,100761.00
2022-10-28T02:42:26.257Z,100757.34
2022-10-28T02:44:59.741Z,100771.97
2022-10-28T02:47:29.913Z,100781.88
2022-10-28T02:50:02.450Z,100784.94
2022-10-28T02:52:32.382Z,100796.59
2022-10-28T02:55:03.238Z,100805.88
2022-10-28T02:57:33.682Z,100806.88
2022-10-28T03:00:03.309Z,100806.94
2022-10-28T03:02:31.053Z,100805.47
2022-10-28T03:05:00.137Z,100811.22
2022-10-28T03:07:27.962Z,100802.91
2022-10-28T03:09:55.807Z,100808.81
2022-10-28T03:12:23.640Z,100809.63
2022-10-28T03:14:51.365Z,100805.09
2022-10-28T03:17:19.156Z,100805.16
2022-10-28T03:19:46.856Z,100816.53
2022-10-28T03:22:15.968Z,100825.63
2022-10-28T03:24:43.722Z,100824.31
2022-10-28T03:27:11.458Z,100821.13
2022-10-28T03:29:43.338Z,100839.31
2022-10-28T03:32:13.653Z,100827.47
2022-10-28T03:34:41.521Z,100830.22
2022-10-28T03:37:09.206Z,100839.06
2022-10-28T03:39:38.345Z,100851.59
2022-10-28T03:42:06.253Z,100851.22
2022-10-28T03:44:33.901Z,100847.00
2022-10-28T03:47:01.642Z,100859.16
2022-10-28T03:49:29.333Z,100847.00
2022-10-28T03:51:57.036Z,100833.41
2022-10-28T03:54:24.741Z,100841.63
2022-10-28T03:56:53.847Z,100839.75
2022-10-28T03:59:21.578Z,100842.47
2022-10-28T04:01:49.342Z,100852.03
2022-10-28T04:04:17.311Z,100841.78
2022-10-28T04:06:45.107Z,100829.47
2022-10-28T04:09:12.850Z,100835.47
2022-10-28T04:11:40.533Z,100854.28
2022-10-28T04:14:09.648Z,100827.53
2022-10-28T04:16:37.330Z,100832.53
2022-10-28T04:19:05.149Z,100837.31
2022-10-28T04:21:32.789Z,100836.84
2022-10-28T04:24:00.561Z,100837.22
2022-10-28T04:26:28.259Z,100856.97
2022-10-28T04:28:55.932Z,100865.06
2022-10-28T04:31:25.026Z,100873.91
2022-10-28T04:33:52.876Z,100866.94
2022-10-28T04:36:20.653Z,100870.00
2022-10-28T04:38:48.294Z,100866.78
2022-10-28T04:41:16.598Z,100870.34
2022-10-28T04:43:44.317Z,100880.38
2022-10-28T04:46:11.986Z,100894.88
2022-10-28T04:48:41.085Z,100908.09
2022-10-28T04:51:08.837Z,100908.09
2022-10-28T04:53:36.621Z,100917.03
2022-10-28T04:56:04.427Z,100926.50
2022-10-28T04:58:32.098Z,100925.75
2022-10-28T05:00:59.894Z,100918.41
2022-10-28T05:03:27.677Z,100927.31
2022-10-28T05:05:56.701Z,100928.53
2022-10-28T05:08:24.548Z,100924.56
2022-10-28T05:10:52.243Z,100923.34
2022-10-28T05:13:20.129Z,100929.19
2022-10-28T05:15:49.270Z,100929.31
2022-10-28T05:18:17.168Z,100939.59
2022-10-28T05:20:45.383Z,100933.34
2022-10-28T05:23:15.113Z,100919.09
2022-10-28T05:25:43.989Z,100921.06
2022-10-28T05:28:11.675Z,100922.31
2022-10-28T05:30:39.390Z,100924.03
2022-10-28T05:33:07.202Z,100932.88
2022-10-28T05:35:34.886Z,100944.41
2022-10-28T05:38:02.605Z,100950.41
2022-10-28T05:40:32.527Z,100955.94
2022-10-28T05:43:00.266Z,100955.50
2022-10-28T05:48:01.123Z,100971.38
2022-10-28T05:50:28.840Z,100982.91
2022-10-28T05:52:58.172Z,100991.06
2022-10-28T05:55:28.359Z,100995.94
2022-10-28T05:57:58.244Z,100985.34
2022-10-28T06:00:27.923Z,100990.50
2022-10-28T06:03:03.516Z,100995.66
2022-10-28T06:05:31.269Z,100998.31
2022-10-28T06:07:59.037Z,101002.22
2022-10-28T06:10:26.770Z,100991.47
2022-10-28T06:12:56.089Z,100996.81
2022-10-28T06:15:23.889Z,100989.25
2022-10-28T06:17:51.748Z,100982.44
2022-10-28T06:20:20.163Z,100989.69
2022-10-28T06:22:49.230Z,100989.56
2022-10-28T06:25:17.874Z,101004.78
2022-10-28T06:27:45.657Z,101008.00
2022-10-28T06:30:15.010Z,101011.91
2022-10-28T06:32:42.754Z,101019.91
2022-10-28T06:35:10.470Z,101018.41
2022-10-28T06:37:38.218Z,101028.06
2022-10-28T06:40:07.705Z,101011.28
2022-10-28T06:42:35.395Z,101016.47
2022-10-28T06:45:04.053Z,101017.44
2022-10-28T06:47:38.998Z,101026.75
2022-10-28T06:50:09.927Z,101030.56
2022-10-28T06:52:37.703Z,101033.00
2022-10-28T06:55:06.079Z,101045.91
2022-10-28T06:57:33.829Z,101043.97
2022-10-28T07:00:01.576Z,101048.50
2022-10-28T07:02:29.413Z,101055.22
2022-10-28T07:04:58.513Z,101059.81
2022-10-28T07:07:26.251Z,101052.00
2022-10-28T07:09:53.975Z,101066.19
2022-10-28T07:12:22.010Z,101065.94
2022-10-28T07:14:50.139Z,101081.25
2022-10-28T07:17:17.807Z,101093.25
2022-10-28T07:19:45.553Z,101108.31
2022-10-28T07:22:14.604Z,101113.25
2022-10-28T07:24:42.343Z,101121.00
2022-10-28T07:27:10.694Z,101106.25
2022-10-28T07:29:38.486Z,101108.78
2022-10-28T07:32:06.485Z,101110.34
2022-10-28T07:34:34.221Z,101108.94
2022-10-28T07:37:02.030Z,101119.50
2022-10-28T07:39:31.165Z,101120.13
2022-10-28T07:42:00.425Z,101125.53
2022-10-28T07:44:28.406Z,101128.28
2022-10-28T07:46:58.166Z,101133.84
2022-10-28T07:49:26.562Z,101139.75
2022-10-28T07:51:54.276Z,101145.97
2022-10-28T07:54:22.061Z,101131.34
2022-10-28T07:56:51.112Z,101145.53
2022-10-28T07:59:25.689Z,101147.09
2022-10-28T08:01:55.186Z,101147.84
2022-10-28T08:04:23.004Z,101147.47
2022-10-28T08:06:50.675Z,101122.31
2022-10-28T08:09:18.415Z,101134.84
2022-10-28T08:11:46.068Z,101160.03
2022-10-28T08:14:15.687Z,101159.44
2022-10-28T08:16:43.392Z,101164.94
2022-10-28T08:19:11.980Z,101172.94
2022-10-28T08:21:39.656Z,101179.88
2022-10-28T08:24:08.144Z,101167.44
2022-10-28T08:26:35.927Z,101182.44
2022-10-28T08:29:03.585Z,101196.22
2022-10-28T08:31:34.400Z,101205.06
2022-10-28T08:34:02.148Z,101216.13
2022-10-28T08:36:29.804Z,101229.94
2022-10-28T08:38:59.190Z,101248.75
2022-10-28T08:41:35.979Z,101253.97
2022-10-28T08:44:38.972Z,101265.91
2022-10-28T08:47:17.144Z,101272.41
2022-10-28T08:49:49.301Z,101275.59
2022-10-28T08:52:26.661Z,101278.66
2022-10-28T08:54:59.051Z,101284.59
2022-10-28T08:57:36.174Z,101273.66
2022-10-28T09:00:07.632Z,101286.00
2022-10-28T09:02:50.094Z,101286.53
2022-10-28T09:05:23.379Z,101275.22
2022-10-28T09:07:51.720Z,101302.72
2022-10-28T09:10:38.340Z,101303.56
2022-10-28T09:13:18.217Z,101311.81
2022-10-28T09:15:51.654Z,101312.91
2022-10-28T09:18:24.245Z,101316.88
2022-10-28T09:20:54.495Z,101318.13
2022-10-28T09:23:30.960Z,101324.00
2022-10-28T09:26:07.859Z,101326.97
2022-10-28T09:28:52.927Z,101324.00
2022-10-28T09:31:28.843Z,101327.69
2022-10-28T09:34:08.988Z,101338.16
2022-10-28T09:36:41.066Z,101342.84
2022-10-28T09:39:17.977Z,101338.22
2022-10-28T09:41:48.985Z,101328.22
2022-10-28T09:44:21.501Z,101338.22
2022-10-28T09:46:52.476Z,101352.06
2022-10-28T09:49:26.987Z,101366.50
2022-10-28T09:52:00.876Z,101377.72
2022-10-28T09:54:35.768Z,101373.84
2022-10-28T09:57:05.355Z,101371.53
2022-10-28T09:59:33.323Z,101375.25
2022-10-28T10:02:01.375Z,101388.44
2022-10-28T10:04:32.209Z,101386.22
2022-10-28T10:07:04.747Z,101387.06
2022-10-28T10:09:34.252Z,101390.41
2022-10-28T10:12:05.920Z,101401.25
2022-10-28T10:14:40.004Z,101403.09
2022-10-28T10:17:13.581Z,101393.81
2022-10-28T10:20:03.922Z,101396.53
2022-10-28T10:22:33.496Z,101398.38
2022-10-28T10:25:01.333Z,101408.72
2022-10-28T10:27:30.182Z,101410.22
2022-10-28T10:29:58.901Z,101421.06
2022-10-28T10:32:29.462Z,101416.16
2022-10-28T10:35:06.714Z,101429.66
2022-10-28T10:37:36.581Z,101426.22
2022-10-28T10:40:17.536Z,101435.09
2022-10-28T10:42:57.395Z,101439.53
2022-10-28T10:45:33.208Z,101434.38
2022-10-28T10:48:21.765Z,101434.63
2022-10-28T10:50:51.507Z,101439.19
2022-10-28T10:53:22.176Z,101446.00
2022-10-28T10:55:52.200Z,101443.22
2022-10-28T10:58:22.688Z,101442.28
2022-10-28T11:00:52.465Z,101440.06
2022-10-28T11:03:25.548Z,101444.34
2022-10-28T11:06:18.264Z,101454.69
2022-10-28T11:08:45.009Z,101453.13
2022-10-28T11:11:15.567Z,101454.69
2022-10-28T11:13:46.184Z,101456.44
2022-10-28T11:16:23.213Z,101449.91
2022-10-28T11:18:52.519Z,101444.44
2022-10-28T11:21:47.795Z,101438.22
2022-10-28T11:24:37.852Z,101435.06
2022-10-28T11:27:17.095Z,101434.72
2022-10-28T11:29:46.468Z,101428.97
2022-10-28T11:32:54.643Z,101417.66
2022-10-28T11:35:49.525Z,101418.50
2022-10-28T11:38:32.584Z,101410.31
2022-10-28T11:41:13.367Z,101402.56
2022-10-28T11:43:54.769Z,101402.22
2022-10-28T11:46:34.945Z,101405.16
2022-10-28T11:49:30.441Z,101412.56
2022-10-28T11:52:05.636Z,101430.06
2022-10-28T11:54:48.017Z,101423.53
2022-10-28T11:57:18.628Z,101414.03
2022-10-28T12:00:08.053Z,101412.09
2022-10-28T12:02:56.038Z,101415.41
2022-10-28T12:05:31.417Z,101406.56
2022-10-28T12:08:10.158Z,101390.13
2022-10-28T12:10:59.799Z,101414.31
2022-10-28T12:13:37.924Z,101423.88
2022-10-28T12:16:14.285Z,101420.88
2022-10-28T12:18:51.828Z,101430.06
2022-10-28T12:21:29.271Z,101433.03
2022-10-28T12:23:59.917Z,101423.44
2022-10-28T12:26:36.058Z,101413.75
2022-10-28T12:29:09.897Z,101413.75
2022-10-28T12:31:44.633Z,101411.22
2022-10-28T12:34:15.832Z,101411.47
2022-10-28T12:36:49.239Z,101414.13
2022-10-28T12:39:22.408Z,101412.81
2022-10-28T12:42:00.728Z,101412.81
2022-10-28T12:44:29.449Z,101412.91
2022-10-28T12:47:10.061Z,101407.88
2022-10-28T12:49:47.713Z,101407.13
2022-10-28T12:52:26.735Z,101401.94
2022-10-28T12:54:59.870Z,101397.22
2022-10-28T12:57:32.751Z,101402.66
2022-10-28T13:00:04.052Z,101400.88
2022-10-28T13:02:36.482Z,101407.47
2022-10-28T13:05:05.561Z,101404.97
2022-10-28T13:08:09.214Z,101408.69
2022-10-28T13:10:43.812Z,101401.41
2022-10-28T13:13:43.202Z,101399.41
2022-10-28T13:16:39.402Z,101394.56
2022-10-28T13:19:30.146Z,101394.22
2022-10-28T13:22:18.107Z,101399.53
2022-10-28T13:24:56.152Z,101399.00
2022-10-28T13:27:24.449Z,101407.13
2022-10-28T13:29:56.014Z,101400.22
2022-10-28T13:32:34.151Z,101395.47
2022-10-28T13:35:13.855Z,101411.53
2022-10-28T13:37:46.065Z,101425.91
2022-10-28T13:40:23.603Z,101413.66
2022-10-28T13:42:51.732Z,101399.78
2022-10-28T13:45:59.098Z,101389.34
2022-10-28T13:48:51.916Z,101387.34
2022-10-28T13:51:45.162Z,101392.53
2022-10-28T13:54:26.960Z,101390.34
2022-10-28T13:56:56.949Z,101401.06
2022-10-28T13:59:33.291Z,101400.84
2022-10-28T14:04:59.880Z,101408.53
2022-10-28T14:07:31.259Z,101401.81
2022-10-28T14:10:17.625Z,101410.19
2022-10-28T14:12:51.235Z,101408.69
2022-10-28T14:15:24.287Z,101413.06
2022-10-28T14:18:04.895Z,101411.59
2022-10-28T14:20:59.082Z,101397.53
2022-10-28T14:24:06.725Z,101398.75
2022-10-28T14:27:29.976Z,101392.59
2022-10-28T14:30:23.759Z,101394.28
2022-10-28T14:33:19.284Z,101389.97
2022-10-28T14:35:55.315Z,101399.97
2022-10-28T14:38:50.785Z,101397.50
2022-10-28T14:41:31.223Z,101391.78
2022-10-28T14:44:10.507Z,101403.09
2022-10-28T14:46:57.263Z,101395.28
2022-10-28T14:49:27.933Z,101399.25
2022-10-28T14:51:58.028Z,101397.50
2022-10-28T14:54:36.593Z,101405.75
2022-10-28T14:57:09.515Z,101400.88
2022-10-28T14:59:39.234Z,101404.03
2022-10-28T15:02:15.331Z,101397.09
2022-10-28T15:04:45.499Z,101394.28
2022-10-28T15:07:15.375Z,101392.09
2022-10-28T15:09:44.462Z,101393.09
2022-10-28T15:12:14.488Z,101397.06
2022-10-28T15:14:46.444Z,101404.09
2022-10-28T15:17:18.470Z,101408.84
2022-10-28T15:19:47.890Z,101405.31
2022-10-28T15:22:19.341Z,101406.78
2022-10-28T15:24:58.748Z,101413.56
2022-10-28T15:27:28.956Z,101405.28
2022-10-28T15:29:57.835Z,101408.50
2022-10-28T15:32:29.769Z,101402.84
2022-10-28T15:34:57.927Z,101402.84
2022-10-28T15:37:28.094Z,101395.19
2022-10-28T15:40:13.420Z,101398.50
2022-10-28T15:42:45.664Z,101405.78
2022-10-28T15:45:19.331Z,101403.09
2022-10-28T15:47:49.721Z,101398.03
2022-10-28T15:50:38.255Z,101402.00
2022-10-28T15:53:23.585Z,101400.25
2022-10-28T15:56:10.553Z,101400.53
2022-10-28T15:58:40.456Z,101393.97
2022-10-28T16:01:11.368Z,101394.59
2022-10-28T16:03:45.808Z,101396.84
2022-10-28T16:06:24.669Z,101399.16
2022-10-28T16:09:18.494Z,101401.03
2022-10-28T16:11:49.427Z,101386.84
2022-10-28T16:14:37.426Z,101389.03
2022-10-28T16:17:13.877Z,101392.50
2022-10-28T16:19:47.583Z,101390.16
2022-10-28T16:22:15.676Z,101387.19
2022-10-28T16:24:43.585Z,101398.38
2022-10-28T16:27:21.952Z,101395.44
2022-10-28T16:29:50.208Z,101387.44
2022-10-28T16:32:26.581Z,101393.22
2022-10-28T16:34:56.612Z,101389.03
2022-10-28T16:37:26.979Z,101386.69
2022-10-28T16:39:55.452Z,101385.94
2022-10-28T16:42:23.935Z,101377.22
2022-10-28T16:44:51.919Z,101370.41
2022-10-28T16:47:21.730Z,101374.31
2022-10-28T16:49:54.129Z,101376.41
2022-10-28T16:52:29.187Z,101366.28
2022-10-28T16:54:58.107Z,101365.63
2022-10-28T16:57:25.971Z,101375.59
2022-10-28T16:59:54.350Z,101364.75
2022-10-28T17:02:26.923Z,101360.63
2022-10-28T17:04:55.385Z,101368.59
2022-10-28T17:07:23.288Z,101371.03
2022-10-28T17:09:52.929Z,101368.28
2022-10-28T17:12:23.001Z,101383.03
2022-10-28T17:14:51.055Z,101379.09
2022-10-28T17:17:19.067Z,101384.69
2022-10-28T17:19:46.855Z,101385.31
2022-10-28T17:22:15.088Z,101377.72
2022-10-28T17:24:43.002Z,101385.47
2022-10-28T17:27:12.816Z,101381.81
2022-10-28T17:29:40.683Z,101373.06
2022-10-28T17:32:09.308Z,101381.38
2022-10-28T17:34:37.360Z,101379.38
2022-10-28T17:37:05.912Z,101384.06
2022-10-28T17:39:33.624Z,101390.31
2022-10-28T17:42:01.478Z,101384.06
2022-10-28T17:44:30.579Z,101388.47
2022-10-28T17:46:58.359Z,101384.06
2022-10-28T17:49:26.108Z,101388.44
2022-10-28T17:51:53.844Z,101393.84
2022-10-28T17:54:21.521Z,101392.81
2022-10-28T17:56:49.275Z,101388.59
2022-10-28T17:59:18.742Z,101387.22
2022-10-28T18:01:47.870Z,101395.84
2022-10-28T18:04:15.785Z,101389.19
2022-10-28T18:06:43.573Z,101388.94
2022-10-28T18:09:12.740Z,101389.84
2022-10-28T18:11:40.841Z,101389.09
2022-10-28T18:14:08.541Z,101388.22
2022-10-28T18:16:37.841Z,101378.22
2022-10-28T18:19:08.583Z,101381.03
2022-10-28T18:21:36.437Z,101385.16
2022-10-28T18:24:07.406Z,101380.38
2022-10-28T18:26:36.677Z,101388.69
2022-10-28T18:29:07.943Z,101394.22
2022-10-28T18:31:35.879Z,101387.97
2022-10-28T18:34:04.517Z,101393.66
2022-10-28T18:36:35.627Z,101387.19
2022-10-28T18:39:04.514Z,101387.16
2022-10-28T18:41:34.456Z,101381.88
2022-10-28T18:44:04.373Z,101384.81
2022-10-28T18:46:34.283Z,101381.22
2022-10-28T18:49:03.046Z,101379.72
2022-10-28T18:51:30.852Z,101376.25
2022-10-28T18:53:59.955Z,101375.88
2022-10-28T18:56:29.663Z,101368.44
2022-10-28T18:58:57.762Z,101356.22
2022-10-28T19:01:27.402Z,101360.22
2022-10-28T19:03:57.321Z,101359.03
2022-10-28T19:06:26.320Z,101358.47
2022-10-28T19:08:56.008Z,101344.66
2022-10-28T19:11:29.956Z,101337.97
2022-10-28T19:13:58.695Z,101342.50
2022-10-28T19:16:26.487Z,101338.38
2022-10-28T19:18:58.083Z,101345.84
2022-10-28T19:21:26.672Z,101333.75
2022-10-28T19:23:54.477Z,101336.09
2022-10-28T19:26:22.808Z,101338.72
2022-10-28T19:28:52.816Z,101331.06
2022-10-28T19:31:22.088Z,101327.66
2022-10-28T19:33:50.123Z,101327.03
2022-10-28T19:36:19.259Z,101317.53
2022-10-28T19:38:48.420Z,101312.75
2022-10-28T19:41:18.652Z,101315.78
2022-10-28T19:43:46.900Z,101311.56
2022-10-28T19:46:17.793Z,101308.47
2022-10-28T19:48:47.672Z,101300.25
2022-10-28T19:51:17.583Z,101308.91
2022-10-28T19:53:48.376Z,101310.50
2022-10-28T19:56:18.683Z,101310.84
2022-10-28T19:58:47.529Z,101304.34
2022-10-28T20:01:17.547Z,101315.66
2022-10-28T20:03:49.191Z,101317.84
2022-10-28T20:06:19.022Z,101312.13
2022-10-28T20:08:48.391Z,101306.91
2022-10-28T20:11:21.329Z,101295.81
2022-10-28T20:13:53.765Z,101299.91
2022-10-28T20:16:22.979Z,101312.13
2022-10-28T20:18:50.732Z,101317.47
2022-10-28T20:21:19.974Z,101313.69
2022-10-28T20:26:18.876Z,101297.59
2022-10-28T20:28:46.908Z,101290.47
2022-10-28T20:31:17.033Z,101299.56
2022-10-28T20:33:51.592Z,101294.47
2022-10-28T20:36:24.131Z,101296.50
2022-10-28T20:38:55.149Z,101294.56
2022-10-28T20:41:23.569Z,101289.34
2022-10-28T20:43:52.201Z,101288.91
2022-10-28T20:46:20.418Z,101288.28
2022-10-28T20:48:50.348Z,101293.56
2022-10-28T20:51:18.082Z,101296.25
2022-10-28T20:53:45.754Z,101298.00
2022-10-28T20:56:17.250Z,101297.91
2022-10-28T20:58:44.964Z,101304.81
2022-10-28T21:01:15.320Z,101293.25
2022-10-28T21:03:43.922Z,101284.38
2022-10-28T21:08:46.469Z,101291.56
2022-10-28T21:11:15.860Z,101292.41
2022-10-28T21:13:45.452Z,101292.69
2022-10-28T21:16:14.276Z,101292.41
2022-10-28T21:18:42.293Z,101295.47
2022-10-28T21:21:11.992Z,101288.56
2022-10-28T21:23:41.116Z,101272.09
2022-10-28T21:26:09.801Z,101265.91
2022-10-28T21:28:37.713Z,101268.06
2022-10-28T21:31:07.368Z,101269.03
2022-10-28T21:33:36.837Z,101269.28
2022-10-28T21:36:06.357Z,101272.75
2022-10-28T21:38:34.566Z,101274.19
2022-10-28T21:41:06.123Z,101274.00
2022-10-28T21:43:35.916Z,101268.94
2022-10-28T21:46:04.420Z,101263.44
2022-10-28T21:48:34.024Z,101259.34
2022-10-28T21:51:03.716Z,101249.53
2022-10-28T21:53:33.460Z,101253.84
2022-10-28T21:56:06.779Z,101255.75
2022-10-28T21:58:36.609Z,101260.50
2022-10-28T22:01:06.339Z,101251.66
2022-10-28T22:03:34.452Z,101252.97
2022-10-28T22:06:02.137Z,101248.84
2022-10-28T22:08:29.856Z,101238.44
2022-10-28T22:11:02.260Z,101227.13
2022-10-28T22:13:31.728Z,101208.78
2022-10-28T22:16:01.700Z,101214.97
2022-10-28T22:18:30.310Z,101200.69
2022-10-28T22:20:58.603Z,101210.22
2022-10-28T22:23:26.293Z,101203.53
2022-10-28T22:25:54.004Z,101213.13
2022-10-28T22:28:21.723Z,101202.66
2022-10-28T22:30:50.720Z,101208.38
2022-10-28T22:33:18.465Z,101210.88
2022-10-28T22:35:57.057Z,101204.41
2022-10-28T22:38:24.826Z,101205.09
2022-10-28T22:41:02.693Z,101200.50
2022-10-28T22:43:30.592Z,101180.41
2022-10-28T22:46:00.151Z,101171.97
2022-10-28T22:48:28.911Z,101169.25
2022-10-28T22:50:57.061Z,101162.03
2022-10-28T22:53:25.660Z,101163.25
2022-10-28T22:55:54.097Z,101163.91
2022-10-28T22:58:22.275Z,101158.88
2022-10-28T23:00:50.487Z,101164.88
2022-10-28T23:03:19.849Z,101154.91
2022-10-28T23:05:47.945Z,101146.34
2022-10-28T23:08:17.137Z,101136.88
2022-10-28T23:10:44.789Z,101138.84
2022-10-28T23:13:13.370Z,101138.09
2022-10-28T23:15:41.077Z,101146.88
2022-10-28T23:18:08.894Z,101138.78
2022-10-28T23:20:37.980Z,101130.00
2022-10-28T23:23:05.768Z,101130.78
2022-10-28T23:25:33.652Z,101126.19
2022-10-28T23:28:01.340Z,101127.72
2022-10-28T23:30:29.031Z,101124.78
2022-10-28T23:32:57.921Z,101115.59
2022-10-28T23:35:26.316Z,101113.72
2022-10-28T23:37:55.770Z,101110.72
2022-10-28T23:40:23.512Z,101103.06
2022-10-28T23:42:51.256Z,101084.38
2022-10-28T23:45:18.943Z,101080.72
2022-10-28T23:47:47.104Z,101074.09
2022-10-28T23:50:14.944Z,101066.41
2022-10-28T23:52:43.012Z,101056.91
2022-10-28T23:55:12.055Z,101064.03
2022-10-28T23:57:39.788Z,101058.22
